sensor_id;sensor_type;location;lat;lon;timestamp;P1;durP1;ratioP1;P2;durP2;ratioP2
49764;SDS011;35657;51.204;-4.130;2022-11-20T00:01:30;1.88;;;0.40;;
49764;SDS011;35657;51.204;-4.130;2022-11-20T00:03:57;0.50;;;0.32;;
49764;SDS011;35657;51.204;-4.130;2022-11-20T00:06:23;0.68;;;0.60;;
49764;SDS011;35657;51.204;-4.130;2022-11-20T00:08:50;0.32;;;0.32;;
49764;SDS011;35657;51.204;-4.130;2022-11-20T00:11:17;1.23;;;0.50;;
49764;SDS011;35657;51.204;-4.130;2022-11-20T00:13:46;0.65;;;0.45;;
49764;SDS011;35657;51.204;-4.130;2022-11-20T00:16:13;1.80;;;0.80;;
49764;SDS011;35657;51.204;-4.130;2022-11-20T00:18:41;1.85;;;0.43;;
49764;SDS011;35657;51.204;-4.130;2022-11-20T00:21:14;0.55;;;0.40;;
49764;SDS011;35657;51.204;-4.130;2022-11-20T00:23:44;1.30;;;0.50;;
49764;SDS011;35657;51.204;-4.130;2022-11-20T00:26:11;0.90;;;0.57;;
49764;SDS011;35657;51.204;-4.130;2022-11-20T00:28:39;0.68;;;0.40;;
49764;SDS011;35657;51.204;-4.130;2022-11-20T00:31:06;1.33;;;0.50;;
49764;SDS011;35657;51.204;-4.130;2022-11-20T00:33:36;1.45;;;0.40;;
49764;SDS011;35657;51.204;-4.130;2022-11-20T00:36:05;1.05;;;0.55;;
49764;SDS011;35657;51.204;-4.130;2022-11-20T00:38:32;1.40;;;0.40;;
49764;SDS011;35657;51.204;-4.130;2022-11-20T00:40:59;0.68;;;0.30;;
49764;SDS011;35657;51.204;-4.130;2022-11-20T00:43:26;0.70;;;0.60;;
49764;SDS011;35657;51.204;-4.130;2022-11-20T00:46:03;0.40;;;0.40;;
49764;SDS011;35657;51.204;-4.130;2022-11-20T00:48:30;1.02;;;0.35;;
49764;SDS011;35657;51.204;-4.130;2022-11-20T00:50:56;0.75;;;0.25;;
49764;SDS011;35657;51.204;-4.130;2022-11-20T00:53:22;0.32;;;0.32;;
49764;SDS011;35657;51.204;-4.130;2022-11-20T00:55:59;0.47;;;0.20;;
49764;SDS011;35657;51.204;-4.130;2022-11-20T00:58:31;1.80;;;0.30;;
49764;SDS011;35657;51.204;-4.130;2022-11-20T01:01:40;0.40;;;0.30;;
49764;SDS011;35657;51.204;-4.130;2022-11-20T01:03:51;0.47;;;0.32;;
49764;SDS011;35657;51.204;-4.130;2022-11-20T01:06:19;0.30;;;0.30;;
49764;SDS011;35657;51.204;-4.130;2022-11-20T01:08:47;1.17;;;0.50;;
49764;SDS011;35657;51.204;-4.130;2022-11-20T01:11:15;0.30;;;0.30;;
49764;SDS011;35657;51.204;-4.130;2022-11-20T01:13:45;2.25;;;0.52;;
49764;SDS011;35657;51.204;-4.130;2022-11-20T01:16:14;0.50;;;0.30;;
49764;SDS011;35657;51.204;-4.130;2022-11-20T01:18:43;3.53;;;0.50;;
49764;SDS011;35657;51.204;-4.130;2022-11-20T01:21:12;2.00;;;0.57;;
49764;SDS011;35657;51.204;-4.130;2022-11-20T01:23:40;3.28;;;0.60;;
49764;SDS011;35657;51.204;-4.130;2022-11-20T01:26:08;1.15;;;0.55;;
49764;SDS011;35657;51.204;-4.130;2022-11-20T01:28:35;1.30;;;0.68;;
49764;SDS011;35657;51.204;-4.130;2022-11-20T01:31:02;0.82;;;0.47;;
49764;SDS011;35657;51.204;-4.130;2022-11-20T01:33:43;1.88;;;0.50;;
49764;SDS011;35657;51.204;-4.130;2022-11-20T01:36:11;1.27;;;0.95;;
49764;SDS011;35657;51.204;-4.130;2022-11-20T01:38:38;2.22;;;0.82;;
49764;SDS011;35657;51.204;-4.130;2022-11-20T01:41:04;1.02;;;0.63;;
49764;SDS011;35657;51.204;-4.130;2022-11-20T01:43:31;0.85;;;0.50;;
49764;SDS011;35657;51.204;-4.130;2022-11-20T01:51:12;10.55;;;1.55;;
49764;SDS011;35657;51.204;-4.130;2022-11-20T01:53:44;4.75;;;0.65;;
49764;SDS011;35657;51.204;-4.130;2022-11-20T01:56:10;4.65;;;1.30;;
49764;SDS011;35657;51.204;-4.130;2022-11-20T01:58:39;9.48;;;2.00;;
49764;SDS011;35657;51.204;-4.130;2022-11-20T02:01:09;9.70;;;1.00;;
49764;SDS011;35657;51.204;-4.130;2022-11-20T02:03:36;5.80;;;1.48;;
49764;SDS011;35657;51.204;-4.130;2022-11-20T02:06:12;7.78;;;1.73;;
49764;SDS011;35657;51.204;-4.130;2022-11-20T02:08:50;3.25;;;1.10;;
49764;SDS011;35657;51.204;-4.130;2022-11-20T02:11:17;3.20;;;1.00;;
49764;SDS011;35657;51.204;-4.130;2022-11-20T02:13:43;7.53;;;1.10;;
49764;SDS011;35657;51.204;-4.130;2022-11-20T02:16:16;6.88;;;1.35;;
49764;SDS011;35657;51.204;-4.130;2022-11-20T02:18:51;13.38;;;1.35;;
49764;SDS011;35657;51.204;-4.130;2022-11-20T02:21:27;3.10;;;1.08;;
49764;SDS011;35657;51.204;-4.130;2022-11-20T02:24:14;10.57;;;1.95;;
49764;SDS011;35657;51.204;-4.130;2022-11-20T02:26:49;8.27;;;2.25;;
49764;SDS011;35657;51.204;-4.130;2022-11-20T02:29:19;3.25;;;1.30;;
49764;SDS011;35657;51.204;-4.130;2022-11-20T02:31:50;8.80;;;2.00;;
49764;SDS011;35657;51.204;-4.130;2022-11-20T02:34:18;14.25;;;2.05;;
49764;SDS011;35657;51.204;-4.130;2022-11-20T02:36:43;7.65;;;2.00;;
49764;SDS011;35657;51.204;-4.130;2022-11-20T02:39:11;9.93;;;2.20;;
49764;SDS011;35657;51.204;-4.130;2022-11-20T02:41:42;9.23;;;1.75;;
49764;SDS011;35657;51.204;-4.130;2022-11-20T02:44:09;6.03;;;1.52;;
49764;SDS011;35657;51.204;-4.130;2022-11-20T02:46:35;17.98;;;3.08;;
49764;SDS011;35657;51.204;-4.130;2022-11-20T02:49:01;6.68;;;2.17;;
49764;SDS011;35657;51.204;-4.130;2022-11-20T02:51:28;9.73;;;1.83;;
49764;SDS011;35657;51.204;-4.130;2022-11-20T02:53:53;8.07;;;1.88;;
49764;SDS011;35657;51.204;-4.130;2022-11-20T02:56:19;5.70;;;0.98;;
49764;SDS011;35657;51.204;-4.130;2022-11-20T02:58:45;9.80;;;2.40;;
49764;SDS011;35657;51.204;-4.130;2022-11-20T03:01:11;5.55;;;1.42;;
49764;SDS011;35657;51.204;-4.130;2022-11-20T03:03:37;7.95;;;1.33;;
49764;SDS011;35657;51.204;-4.130;2022-11-20T03:06:02;8.75;;;1.73;;
49764;SDS011;35657;51.204;-4.130;2022-11-20T03:08:28;10.65;;;1.70;;
49764;SDS011;35657;51.204;-4.130;2022-11-20T03:10:54;13.50;;;3.05;;
49764;SDS011;35657;51.204;-4.130;2022-11-20T03:13:20;8.90;;;1.25;;
49764;SDS011;35657;51.204;-4.130;2022-11-20T03:15:45;5.63;;;1.52;;
49764;SDS011;35657;51.204;-4.130;2022-11-20T03:18:11;15.13;;;2.50;;
49764;SDS011;35657;51.204;-4.130;2022-11-20T03:20:38;13.80;;;2.47;;
49764;SDS011;35657;51.204;-4.130;2022-11-20T03:23:04;10.13;;;1.95;;
49764;SDS011;35657;51.204;-4.130;2022-11-20T03:25:31;15.10;;;3.38;;
49764;SDS011;35657;51.204;-4.130;2022-11-20T03:27:57;7.90;;;1.80;;
49764;SDS011;35657;51.204;-4.130;2022-11-20T03:30:22;10.05;;;2.38;;
49764;SDS011;35657;51.204;-4.130;2022-11-20T03:32:48;9.10;;;2.47;;
49764;SDS011;35657;51.204;-4.130;2022-11-20T03:35:17;6.20;;;2.08;;
49764;SDS011;35657;51.204;-4.130;2022-11-20T03:37:43;12.63;;;2.55;;
49764;SDS011;35657;51.204;-4.130;2022-11-20T03:40:10;7.13;;;1.20;;
49764;SDS011;35657;51.204;-4.130;2022-11-20T03:42:36;12.35;;;2.03;;
49764;SDS011;35657;51.204;-4.130;2022-11-20T03:45:14;13.55;;;2.80;;
49764;SDS011;35657;51.204;-4.130;2022-11-20T03:47:41;14.38;;;3.38;;
49764;SDS011;35657;51.204;-4.130;2022-11-20T03:50:08;10.02;;;2.35;;
49764;SDS011;35657;51.204;-4.130;2022-11-20T03:52:34;6.03;;;2.25;;
49764;SDS011;35657;51.204;-4.130;2022-11-20T03:55:00;17.77;;;2.50;;
49764;SDS011;35657;51.204;-4.130;2022-11-20T03:57:26;11.48;;;2.58;;
49764;SDS011;35657;51.204;-4.130;2022-11-20T03:59:52;21.15;;;3.13;;
49764;SDS011;35657;51.204;-4.130;2022-11-20T04:02:17;12.20;;;3.17;;
49764;SDS011;35657;51.204;-4.130;2022-11-20T04:04:43;8.68;;;2.35;;
49764;SDS011;35657;51.204;-4.130;2022-11-20T04:07:09;12.50;;;3.10;;
49764;SDS011;35657;51.204;-4.130;2022-11-20T04:09:35;9.27;;;2.38;;
49764;SDS011;35657;51.204;-4.130;2022-11-20T04:12:00;9.90;;;2.10;;
49764;SDS011;35657;51.204;-4.130;2022-11-20T04:14:26;12.35;;;2.20;;
49764;SDS011;35657;51.204;-4.130;2022-11-20T04:16:51;11.57;;;3.28;;
49764;SDS011;35657;51.204;-4.130;2022-11-20T04:19:17;8.05;;;2.55;;
49764;SDS011;35657;51.204;-4.130;2022-11-20T04:21:43;23.33;;;4.38;;
49764;SDS011;35657;51.204;-4.130;2022-11-20T04:24:09;12.65;;;3.33;;
49764;SDS011;35657;51.204;-4.130;2022-11-20T04:26:36;8.70;;;1.95;;
49764;SDS011;35657;51.204;-4.130;2022-11-20T04:29:02;11.95;;;2.90;;
49764;SDS011;35657;51.204;-4.130;2022-11-20T04:31:29;6.15;;;2.03;;
49764;SDS011;35657;51.204;-4.130;2022-11-20T04:34:00;15.05;;;2.75;;
49764;SDS011;35657;51.204;-4.130;2022-11-20T04:36:28;8.57;;;2.25;;
49764;SDS011;35657;51.204;-4.130;2022-11-20T04:38:55;14.85;;;3.20;;
49764;SDS011;35657;51.204;-4.130;2022-11-20T04:41:23;10.70;;;2.97;;
49764;SDS011;35657;51.204;-4.130;2022-11-20T04:43:53;18.30;;;4.07;;
49764;SDS011;35657;51.204;-4.130;2022-11-20T04:46:24;4.43;;;1.50;;
49764;SDS011;35657;51.204;-4.130;2022-11-20T04:48:51;7.40;;;1.65;;
49764;SDS011;35657;51.204;-4.130;2022-11-20T04:51:17;10.27;;;2.88;;
49764;SDS011;35657;51.204;-4.130;2022-11-20T04:53:42;24.42;;;3.55;;
49764;SDS011;35657;51.204;-4.130;2022-11-20T04:56:09;14.75;;;2.80;;
49764;SDS011;35657;51.204;-4.130;2022-11-20T04:58:37;9.07;;;2.38;;
49764;SDS011;35657;51.204;-4.130;2022-11-20T05:01:06;11.18;;;2.55;;
49764;SDS011;35657;51.204;-4.130;2022-11-20T05:03:35;5.90;;;1.55;;
49764;SDS011;35657;51.204;-4.130;2022-11-20T05:06:01;17.67;;;2.28;;
49764;SDS011;35657;51.204;-4.130;2022-11-20T05:08:28;6.05;;;2.67;;
49764;SDS011;35657;51.204;-4.130;2022-11-20T05:10:59;6.22;;;2.50;;
49764;SDS011;35657;51.204;-4.130;2022-11-20T05:13:45;12.57;;;3.15;;
49764;SDS011;35657;51.204;-4.130;2022-11-20T05:16:11;10.10;;;2.30;;
49764;SDS011;35657;51.204;-4.130;2022-11-20T05:18:39;12.10;;;3.25;;
49764;SDS011;35657;51.204;-4.130;2022-11-20T05:21:06;14.60;;;2.95;;
49764;SDS011;35657;51.204;-4.130;2022-11-20T05:23:32;12.65;;;3.13;;
49764;SDS011;35657;51.204;-4.130;2022-11-20T05:25:58;13.90;;;3.25;;
49764;SDS011;35657;51.204;-4.130;2022-11-20T05:28:25;15.38;;;3.40;;
49764;SDS011;35657;51.204;-4.130;2022-11-20T05:30:52;17.90;;;3.25;;
49764;SDS011;35657;51.204;-4.130;2022-11-20T05:33:18;11.77;;;2.70;;
49764;SDS011;35657;51.204;-4.130;2022-11-20T05:35:44;12.13;;;3.53;;
49764;SDS011;35657;51.204;-4.130;2022-11-20T05:38:10;17.95;;;4.03;;
49764;SDS011;35657;51.204;-4.130;2022-11-20T05:40:36;15.02;;;3.85;;
49764;SDS011;35657;51.204;-4.130;2022-11-20T05:43:02;16.92;;;3.58;;
49764;SDS011;35657;51.204;-4.130;2022-11-20T05:45:28;10.05;;;2.53;;
49764;SDS011;35657;51.204;-4.130;2022-11-20T05:47:57;16.10;;;3.20;;
49764;SDS011;35657;51.204;-4.130;2022-11-20T05:50:24;12.95;;;2.40;;
49764;SDS011;35657;51.204;-4.130;2022-11-20T05:52:50;21.33;;;4.03;;
49764;SDS011;35657;51.204;-4.130;2022-11-20T05:55:15;11.75;;;3.15;;
49764;SDS011;35657;51.204;-4.130;2022-11-20T05:57:41;11.50;;;3.00;;
49764;SDS011;35657;51.204;-4.130;2022-11-20T06:00:07;22.55;;;3.05;;
49764;SDS011;35657;51.204;-4.130;2022-11-20T06:02:34;14.85;;;3.35;;
49764;SDS011;35657;51.204;-4.130;2022-11-20T06:05:00;8.82;;;1.55;;
49764;SDS011;35657;51.204;-4.130;2022-11-20T06:07:26;14.57;;;1.40;;
49764;SDS011;35657;51.204;-4.130;2022-11-20T06:09:52;4.93;;;1.73;;
49764;SDS011;35657;51.204;-4.130;2022-11-20T06:12:18;14.35;;;3.22;;
49764;SDS011;35657;51.204;-4.130;2022-11-20T06:14:43;7.93;;;2.15;;
49764;SDS011;35657;51.204;-4.130;2022-11-20T06:17:09;7.72;;;2.00;;
49764;SDS011;35657;51.204;-4.130;2022-11-20T06:19:35;15.52;;;2.50;;
49764;SDS011;35657;51.204;-4.130;2022-11-20T06:22:00;12.70;;;2.80;;
49764;SDS011;35657;51.204;-4.130;2022-11-20T06:24:26;13.13;;;2.00;;
49764;SDS011;35657;51.204;-4.130;2022-11-20T06:26:51;11.55;;;2.30;;
49764;SDS011;35657;51.204;-4.130;2022-11-20T06:29:17;5.15;;;1.48;;
49764;SDS011;35657;51.204;-4.130;2022-11-20T06:31:43;7.00;;;3.17;;
49764;SDS011;35657;51.204;-4.130;2022-11-20T06:34:09;4.47;;;1.70;;
49764;SDS011;35657;51.204;-4.130;2022-11-20T06:36:35;5.32;;;1.88;;
49764;SDS011;35657;51.204;-4.130;2022-11-20T06:39:00;8.02;;;2.03;;
49764;SDS011;35657;51.204;-4.130;2022-11-20T06:41:26;7.35;;;1.85;;
49764;SDS011;35657;51.204;-4.130;2022-11-20T06:43:53;5.78;;;1.80;;
49764;SDS011;35657;51.204;-4.130;2022-11-20T06:46:19;12.90;;;1.80;;
49764;SDS011;35657;51.204;-4.130;2022-11-20T06:48:46;10.40;;;3.00;;
49764;SDS011;35657;51.204;-4.130;2022-11-20T06:51:12;10.63;;;3.50;;
49764;SDS011;35657;51.204;-4.130;2022-11-20T06:53:38;15.05;;;3.67;;
49764;SDS011;35657;51.204;-4.130;2022-11-20T06:56:05;4.05;;;1.42;;
49764;SDS011;35657;51.204;-4.130;2022-11-20T06:58:32;10.05;;;3.30;;
49764;SDS011;35657;51.204;-4.130;2022-11-20T07:00:59;11.75;;;2.92;;
49764;SDS011;35657;51.204;-4.130;2022-11-20T07:03:26;9.88;;;1.58;;
49764;SDS011;35657;51.204;-4.130;2022-11-20T07:05:53;7.70;;;1.77;;
49764;SDS011;35657;51.204;-4.130;2022-11-20T07:08:20;7.35;;;1.35;;
49764;SDS011;35657;51.204;-4.130;2022-11-20T07:10:46;9.52;;;2.08;;
49764;SDS011;35657;51.204;-4.130;2022-11-20T07:13:12;8.25;;;1.50;;
49764;SDS011;35657;51.204;-4.130;2022-11-20T07:15:38;4.30;;;1.63;;
49764;SDS011;35657;51.204;-4.130;2022-11-20T07:18:04;4.03;;;1.23;;
49764;SDS011;35657;51.204;-4.130;2022-11-20T07:20:29;10.00;;;2.10;;
49764;SDS011;35657;51.204;-4.130;2022-11-20T07:22:55;8.40;;;1.67;;
49764;SDS011;35657;51.204;-4.130;2022-11-20T07:25:22;12.52;;;2.10;;
49764;SDS011;35657;51.204;-4.130;2022-11-20T07:27:52;5.60;;;1.67;;
49764;SDS011;35657;51.204;-4.130;2022-11-20T07:30:21;11.95;;;2.20;;
49764;SDS011;35657;51.204;-4.130;2022-11-20T07:32:47;5.90;;;2.10;;
49764;SDS011;35657;51.204;-4.130;2022-11-20T07:35:17;19.17;;;3.80;;
49764;SDS011;35657;51.204;-4.130;2022-11-20T07:37:42;12.63;;;1.92;;
49764;SDS011;35657;51.204;-4.130;2022-11-20T07:40:08;6.07;;;1.23;;
49764;SDS011;35657;51.204;-4.130;2022-11-20T07:42:34;9.98;;;1.88;;
49764;SDS011;35657;51.204;-4.130;2022-11-20T07:45:00;12.45;;;2.45;;
49764;SDS011;35657;51.204;-4.130;2022-11-20T07:47:26;7.63;;;1.85;;
49764;SDS011;35657;51.204;-4.130;2022-11-20T07:49:51;8.77;;;3.15;;
49764;SDS011;35657;51.204;-4.130;2022-11-20T07:52:17;19.27;;;2.95;;
49764;SDS011;35657;51.204;-4.130;2022-11-20T07:54:43;11.40;;;2.72;;
49764;SDS011;35657;51.204;-4.130;2022-11-20T07:57:08;8.48;;;4.00;;
49764;SDS011;35657;51.204;-4.130;2022-11-20T07:59:34;15.45;;;4.38;;
49764;SDS011;35657;51.204;-4.130;2022-11-20T08:01:59;12.77;;;1.98;;
49764;SDS011;35657;51.204;-4.130;2022-11-20T08:04:25;15.07;;;2.88;;
49764;SDS011;35657;51.204;-4.130;2022-11-20T08:06:54;11.55;;;2.92;;
49764;SDS011;35657;51.204;-4.130;2022-11-20T08:09:19;10.93;;;2.75;;
49764;SDS011;35657;51.204;-4.130;2022-11-20T08:11:45;7.07;;;2.38;;
49764;SDS011;35657;51.204;-4.130;2022-11-20T08:16:55;14.55;;;3.55;;
49764;SDS011;35657;51.204;-4.130;2022-11-20T08:19:21;7.25;;;3.30;;
49764;SDS011;35657;51.204;-4.130;2022-11-20T08:21:47;14.68;;;3.70;;
49764;SDS011;35657;51.204;-4.130;2022-11-20T08:24:12;9.77;;;2.90;;
49764;SDS011;35657;51.204;-4.130;2022-11-20T08:26:38;10.80;;;2.63;;
49764;SDS011;35657;51.204;-4.130;2022-11-20T08:29:05;10.57;;;2.25;;
49764;SDS011;35657;51.204;-4.130;2022-11-20T08:31:31;11.93;;;2.03;;
49764;SDS011;35657;51.204;-4.130;2022-11-20T08:33:57;14.57;;;2.40;;
49764;SDS011;35657;51.204;-4.130;2022-11-20T08:36:23;3.78;;;1.48;;
49764;SDS011;35657;51.204;-4.130;2022-11-20T08:38:54;8.23;;;2.08;;
49764;SDS011;35657;51.204;-4.130;2022-11-20T08:41:21;4.97;;;1.23;;
49764;SDS011;35657;51.204;-4.130;2022-11-20T08:43:51;9.40;;;3.33;;
49764;SDS011;35657;51.204;-4.130;2022-11-20T08:46:19;7.70;;;1.58;;
49764;SDS011;35657;51.204;-4.130;2022-11-20T08:48:45;5.35;;;1.80;;
49764;SDS011;35657;51.204;-4.130;2022-11-20T08:51:11;8.27;;;1.55;;
49764;SDS011;35657;51.204;-4.130;2022-11-20T08:53:37;12.55;;;2.42;;
49764;SDS011;35657;51.204;-4.130;2022-11-20T08:56:03;7.93;;;2.58;;
49764;SDS011;35657;51.204;-4.130;2022-11-20T08:58:30;15.25;;;1.35;;
49764;SDS011;35657;51.204;-4.130;2022-11-20T09:00:55;8.05;;;1.30;;
49764;SDS011;35657;51.204;-4.130;2022-11-20T09:03:21;10.25;;;2.35;;
49764;SDS011;35657;51.204;-4.130;2022-11-20T09:05:47;2.55;;;0.95;;
49764;SDS011;35657;51.204;-4.130;2022-11-20T09:08:13;12.90;;;1.70;;
49764;SDS011;35657;51.204;-4.130;2022-11-20T09:10:38;7.97;;;1.88;;
49764;SDS011;35657;51.204;-4.130;2022-11-20T09:13:04;6.30;;;1.45;;
49764;SDS011;35657;51.204;-4.130;2022-11-20T09:15:30;10.35;;;2.03;;
49764;SDS011;35657;51.204;-4.130;2022-11-20T09:17:58;9.25;;;1.70;;
49764;SDS011;35657;51.204;-4.130;2022-11-20T09:20:25;4.72;;;1.17;;
49764;SDS011;35657;51.204;-4.130;2022-11-20T09:22:53;5.60;;;0.75;;
49764;SDS011;35657;51.204;-4.130;2022-11-20T09:25:19;14.48;;;2.47;;
49764;SDS011;35657;51.204;-4.130;2022-11-20T09:27:45;9.30;;;1.98;;
49764;SDS011;35657;51.204;-4.130;2022-11-20T09:30:15;4.60;;;1.42;;
49764;SDS011;35657;51.204;-4.130;2022-11-20T09:32:43;15.52;;;2.17;;
49764;SDS011;35657;51.204;-4.130;2022-11-20T09:35:09;18.40;;;2.45;;
49764;SDS011;35657;51.204;-4.130;2022-11-20T09:37:35;8.18;;;2.00;;
49764;SDS011;35657;51.204;-4.130;2022-11-20T09:40:01;13.98;;;1.98;;
49764;SDS011;35657;51.204;-4.130;2022-11-20T09:42:51;6.07;;;1.50;;
49764;SDS011;35657;51.204;-4.130;2022-11-20T09:48:24;8.80;;;1.38;;
49764;SDS011;35657;51.204;-4.130;2022-11-20T09:56:06;3.15;;;1.15;;
49764;SDS011;35657;51.204;-4.130;2022-11-20T09:58:38;9.98;;;1.40;;
49764;SDS011;35657;51.204;-4.130;2022-11-20T10:01:15;5.53;;;2.13;;
49764;SDS011;35657;51.204;-4.130;2022-11-20T10:06:27;8.02;;;1.38;;
49764;SDS011;35657;51.204;-4.130;2022-11-20T10:12:07;14.68;;;1.75;;
49764;SDS011;35657;51.204;-4.130;2022-11-20T10:25:24;8.93;;;2.58;;
49764;SDS011;35657;51.204;-4.130;2022-11-20T10:30:40;4.72;;;1.23;;
49764;SDS011;35657;51.204;-4.130;2022-11-20T10:33:24;4.35;;;1.30;;
49764;SDS011;35657;51.204;-4.130;2022-11-20T10:35:57;9.57;;;2.08;;
49764;SDS011;35657;51.204;-4.130;2022-11-20T10:38:39;7.38;;;0.95;;
49764;SDS011;35657;51.204;-4.130;2022-11-20T10:41:20;7.93;;;1.48;;
49764;SDS011;35657;51.204;-4.130;2022-11-20T10:46:34;5.60;;;1.48;;
49764;SDS011;35657;51.204;-4.130;2022-11-20T10:49:15;2.85;;;0.63;;
49764;SDS011;35657;51.204;-4.130;2022-11-20T10:57:20;6.07;;;1.50;;
49764;SDS011;35657;51.204;-4.130;2022-11-20T11:05:18;5.72;;;2.17;;
49764;SDS011;35657;51.204;-4.130;2022-11-20T11:07:45;3.67;;;0.55;;
49764;SDS011;35657;51.204;-4.130;2022-11-20T11:10:36;5.75;;;1.60;;
49764;SDS011;35657;51.204;-4.130;2022-11-20T11:13:22;5.13;;;1.10;;
49764;SDS011;35657;51.204;-4.130;2022-11-20T11:15:50;10.05;;;0.63;;
49764;SDS011;35657;51.204;-4.130;2022-11-20T11:18:27;4.95;;;0.50;;
49764;SDS011;35657;51.204;-4.130;2022-11-20T11:20:58;6.07;;;0.90;;
49764;SDS011;35657;51.204;-4.130;2022-11-20T11:23:31;0.63;;;0.30;;
49764;SDS011;35657;51.204;-4.130;2022-11-20T11:26:05;3.92;;;0.90;;
49764;SDS011;35657;51.204;-4.130;2022-11-20T11:28:42;2.00;;;0.63;;
49764;SDS011;35657;51.204;-4.130;2022-11-20T11:31:26;3.58;;;0.73;;
49764;SDS011;35657;51.204;-4.130;2022-11-20T11:34:06;0.30;;;0.20;;
49764;SDS011;35657;51.204;-4.130;2022-11-20T11:36:33;0.80;;;0.57;;
49764;SDS011;35657;51.204;-4.130;2022-11-20T11:39:00;2.42;;;0.80;;
49764;SDS011;35657;51.204;-4.130;2022-11-20T11:41:28;3.30;;;1.08;;
49764;SDS011;35657;51.204;-4.130;2022-11-20T11:43:59;2.78;;;1.25;;
49764;SDS011;35657;51.204;-4.130;2022-11-20T11:46:56;14.60;;;8.32;;
49764;SDS011;35657;51.204;-4.130;2022-11-20T11:49:22;20.17;;;9.15;;
49764;SDS011;35657;51.204;-4.130;2022-11-20T11:54:55;6.22;;;2.50;;
49764;SDS011;35657;51.204;-4.130;2022-11-20T11:57:40;5.30;;;2.75;;
49764;SDS011;35657;51.204;-4.130;2022-11-20T12:00:15;7.93;;;2.13;;
49764;SDS011;35657;51.204;-4.130;2022-11-20T12:05:18;11.85;;;2.25;;
49764;SDS011;35657;51.204;-4.130;2022-11-20T12:10:50;19.65;;;11.05;;
49764;SDS011;35657;51.204;-4.130;2022-11-20T12:13:48;11.15;;;4.90;;
49764;SDS011;35657;51.204;-4.130;2022-11-20T12:16:21;25.67;;;4.55;;
49764;SDS011;35657;51.204;-4.130;2022-11-20T12:18:48;7.32;;;3.17;;
49764;SDS011;35657;51.204;-4.130;2022-11-20T12:26:45;12.60;;;5.65;;
49764;SDS011;35657;51.204;-4.130;2022-11-20T12:29:42;20.05;;;8.93;;
49764;SDS011;35657;51.204;-4.130;2022-11-20T12:32:39;12.57;;;6.50;;
49764;SDS011;35657;51.204;-4.130;2022-11-20T12:41:22;13.77;;;7.00;;
49764;SDS011;35657;51.204;-4.130;2022-11-20T12:44:25;9.23;;;4.50;;
49764;SDS011;35657;51.204;-4.130;2022-11-20T12:58:12;6.93;;;2.33;;
49764;SDS011;35657;51.204;-4.130;2022-11-20T13:07:11;2.90;;;1.65;;
49764;SDS011;35657;51.204;-4.130;2022-11-20T13:09:43;8.32;;;1.77;;
49764;SDS011;35657;51.204;-4.130;2022-11-20T13:12:45;3.40;;;1.35;;
49764;SDS011;35657;51.204;-4.130;2022-11-20T13:18:10;7.97;;;2.38;;
49764;SDS011;35657;51.204;-4.130;2022-11-20T13:20:41;11.93;;;1.20;;
49764;SDS011;35657;51.204;-4.130;2022-11-20T13:23:08;6.75;;;2.05;;
49764;SDS011;35657;51.204;-4.130;2022-11-20T13:25:34;8.20;;;2.28;;
49764;SDS011;35657;51.204;-4.130;2022-11-20T13:30:36;11.18;;;2.60;;
49764;SDS011;35657;51.204;-4.130;2022-11-20T13:33:49;8.57;;;1.92;;
49764;SDS011;35657;51.204;-4.130;2022-11-20T13:36:21;10.82;;;2.50;;
49764;SDS011;35657;51.204;-4.130;2022-11-20T13:38:50;10.40;;;3.08;;
49764;SDS011;35657;51.204;-4.130;2022-11-20T13:41:30;10.27;;;3.08;;
49764;SDS011;35657;51.204;-4.130;2022-11-20T13:46:35;6.03;;;2.17;;
49764;SDS011;35657;51.204;-4.130;2022-11-20T13:49:06;5.43;;;2.20;;
49764;SDS011;35657;51.204;-4.130;2022-11-20T13:51:40;15.55;;;3.63;;
49764;SDS011;35657;51.204;-4.130;2022-11-20T14:02:13;5.90;;;2.20;;
49764;SDS011;35657;51.204;-4.130;2022-11-20T14:04:42;7.43;;;1.33;;
49764;SDS011;35657;51.204;-4.130;2022-11-20T14:07:13;6.53;;;1.90;;
49764;SDS011;35657;51.204;-4.130;2022-11-20T14:09:48;5.15;;;1.73;;
49764;SDS011;35657;51.204;-4.130;2022-11-20T14:12:20;4.10;;;1.67;;
49764;SDS011;35657;51.204;-4.130;2022-11-20T14:14:56;5.68;;;1.90;;
49764;SDS011;35657;51.204;-4.130;2022-11-20T14:17:23;7.07;;;2.42;;
49764;SDS011;35657;51.204;-4.130;2022-11-20T14:19:55;5.93;;;3.15;;
49764;SDS011;35657;51.204;-4.130;2022-11-20T14:22:25;13.48;;;5.97;;
49764;SDS011;35657;51.204;-4.130;2022-11-20T14:25:02;9.55;;;3.15;;
49764;SDS011;35657;51.204;-4.130;2022-11-20T14:27:37;12.85;;;3.88;;
49764;SDS011;35657;51.204;-4.130;2022-11-20T14:30:05;7.43;;;2.00;;
49764;SDS011;35657;51.204;-4.130;2022-11-20T14:32:42;12.27;;;2.90;;
49764;SDS011;35657;51.204;-4.130;2022-11-20T14:35:09;10.23;;;2.85;;
49764;SDS011;35657;51.204;-4.130;2022-11-20T14:37:50;4.35;;;1.65;;
49764;SDS011;35657;51.204;-4.130;2022-11-20T14:40:23;11.65;;;3.85;;
49764;SDS011;35657;51.204;-4.130;2022-11-20T14:42:51;14.48;;;7.18;;
49764;SDS011;35657;51.204;-4.130;2022-11-20T14:45:17;14.13;;;5.43;;
49764;SDS011;35657;51.204;-4.130;2022-11-20T14:47:45;10.98;;;4.47;;
49764;SDS011;35657;51.204;-4.130;2022-11-20T14:50:14;8.88;;;3.25;;
49764;SDS011;35657;51.204;-4.130;2022-11-20T14:55:53;13.65;;;2.55;;
49764;SDS011;35657;51.204;-4.130;2022-11-20T14:58:22;4.13;;;2.10;;
49764;SDS011;35657;51.204;-4.130;2022-11-20T15:00:57;8.52;;;2.95;;
49764;SDS011;35657;51.204;-4.130;2022-11-20T15:03:46;8.60;;;3.20;;
49764;SDS011;35657;51.204;-4.130;2022-11-20T15:06:27;14.30;;;4.20;;
49764;SDS011;35657;51.204;-4.130;2022-11-20T15:08:53;13.30;;;2.45;;
49764;SDS011;35657;51.204;-4.130;2022-11-20T15:11:19;10.13;;;2.42;;
49764;SDS011;35657;51.204;-4.130;2022-11-20T15:13:51;23.65;;;3.63;;
49764;SDS011;35657;51.204;-4.130;2022-11-20T15:16:20;18.75;;;2.72;;
49764;SDS011;35657;51.204;-4.130;2022-11-20T15:18:48;4.43;;;2.03;;
49764;SDS011;35657;51.204;-4.130;2022-11-20T15:21:14;8.43;;;2.17;;
49764;SDS011;35657;51.204;-4.130;2022-11-20T15:23:45;7.35;;;1.33;;
49764;SDS011;35657;51.204;-4.130;2022-11-20T15:26:12;12.98;;;1.83;;
49764;SDS011;35657;51.204;-4.130;2022-11-20T15:28:41;13.55;;;2.58;;
49764;SDS011;35657;51.204;-4.130;2022-11-20T15:31:12;4.57;;;1.23;;
49764;SDS011;35657;51.204;-4.130;2022-11-20T15:33:40;7.00;;;1.40;;
49764;SDS011;35657;51.204;-4.130;2022-11-20T15:36:06;9.68;;;2.08;;
49764;SDS011;35657;51.204;-4.130;2022-11-20T15:38:32;5.72;;;2.25;;
49764;SDS011;35657;51.204;-4.130;2022-11-20T15:40:58;9.95;;;1.60;;
49764;SDS011;35657;51.204;-4.130;2022-11-20T15:43:23;5.60;;;1.42;;
49764;SDS011;35657;51.204;-4.130;2022-11-20T15:45:50;4.63;;;1.60;;
49764;SDS011;35657;51.204;-4.130;2022-11-20T15:48:26;12.35;;;2.70;;
49764;SDS011;35657;51.204;-4.130;2022-11-20T15:51:04;7.97;;;1.40;;
49764;SDS011;35657;51.204;-4.130;2022-11-20T15:53:34;13.23;;;2.53;;
49764;SDS011;35657;51.204;-4.130;2022-11-20T15:56:00;10.95;;;2.45;;
49764;SDS011;35657;51.204;-4.130;2022-11-20T15:58:26;6.40;;;1.92;;
49764;SDS011;35657;51.204;-4.130;2022-11-20T16:00:52;7.15;;;2.00;;
49764;SDS011;35657;51.204;-4.130;2022-11-20T16:03:19;7.63;;;2.25;;
49764;SDS011;35657;51.204;-4.130;2022-11-20T16:05:45;17.02;;;2.65;;
49764;SDS011;35657;51.204;-4.130;2022-11-20T16:08:11;10.95;;;1.80;;
49764;SDS011;35657;51.204;-4.130;2022-11-20T16:10:37;15.52;;;1.65;;
49764;SDS011;35657;51.204;-4.130;2022-11-20T16:13:03;6.90;;;1.90;;
49764;SDS011;35657;51.204;-4.130;2022-11-20T16:15:52;4.93;;;1.40;;
49764;SDS011;35657;51.204;-4.130;2022-11-20T16:18:23;7.80;;;1.95;;
49764;SDS011;35657;51.204;-4.130;2022-11-20T16:20:50;7.13;;;1.70;;
49764;SDS011;35657;51.204;-4.130;2022-11-20T16:23:17;8.25;;;2.25;;
49764;SDS011;35657;51.204;-4.130;2022-11-20T16:25:43;6.72;;;1.70;;
49764;SDS011;35657;51.204;-4.130;2022-11-20T16:28:10;5.25;;;1.80;;